Time;durP1;ratioP1;P1;durP2;ratioP2;P2;SDS_P1;SDS_P2;PMS_P1;PMS_P2;Temp;Humidity;BMP_temperature;BMP_pressure;BME280_temperature;BME280_humidity;BME280_pressure;Samples;Min_cycle;Max_cycle;Signal;HPM_P1;HPM_P2
2022/05/21 00:02:17;;;;;;;34.75;18.92;;;11.00;99.90;;;;;;4967787;28;20406;-60
2022/05/21 00:04:42;;;;;;;31.50;19.55;;;11.00;99.90;;;;;;4973892;28;20085;-58
2022/05/21 00:07:10;;;;;;;32.60;17.35;;;11.10;99.90;;;;;;4957053;28;20082;-60
2022/05/21 00:09:36;;;;;;;34.72;18.27;;;11.00;99.90;;;;;;4963219;28;20117;-60
2022/05/21 00:12:02;;;;;;;32.58;18.10;;;11.00;99.90;;;;;;4964171;28;20165;-59
2022/05/21 00:14:29;;;;;;;30.88;17.55;;;11.00;99.90;;;;;;4974062;28;20039;-60
2022/05/21 00:16:54;;;;;;;32.72;18.70;;;11.00;99.90;;;;;;4974384;28;20047;-60
2022/05/21 00:19:20;;;;;;;37.20;18.60;;;11.00;99.90;;;;;;4968163;28;20050;-57
2022/05/21 00:21:45;;;;;;;30.00;17.65;;;11.00;99.90;;;;;;4972102;28;20039;-60
2022/05/21 00:24:11;;;;;;;37.50;21.38;;;11.00;99.90;;;;;;4974351;28;20035;-60
2022/05/21 00:26:36;;;;;;;33.08;18.83;;;11.00;99.90;;;;;;4969397;28;20062;-60
2022/05/21 00:29:02;;;;;;;34.60;19.30;;;11.00;99.90;;;;;;4966740;28;20035;-60
2022/05/21 00:31:28;;;;;;;32.78;18.48;;;11.00;99.90;;;;;;4973893;28;20112;-60
2022/05/21 00:33:54;;;;;;;29.83;17.35;;;11.00;99.90;;;;;;4974216;28;20050;-60
2022/05/21 00:36:20;;;;;;;40.70;19.77;;;11.00;99.90;;;;;;4968414;28;20035;-60
2022/05/21 00:38:45;;;;;;;34.67;19.95;;;11.00;99.90;;;;;;4972044;28;20045;-60
2022/05/21 00:41:14;;;;;;;34.63;19.67;;;11.00;99.90;;;;;;4974291;28;20049;-60
2022/05/21 00:43:54;;;;;;;35.13;19.70;;;11.00;99.90;;;;;;4963333;28;20035;-60
2022/05/21 00:46:22;;;;;;;39.80;20.73;;;11.00;99.90;;;;;;4953886;28;20121;-60
2022/05/21 00:49:20;;;;;;;45.30;23.15;;;11.00;99.90;;;;;;4973747;28;20566;-60
2022/05/21 00:51:49;;;;;;;36.83;19.75;;;11.10;99.90;;;;;;4966934;28;20032;-60
2022/05/21 00:54:17;;;;;;;50.78;24.65;;;11.10;99.90;;;;;;4965440;28;20225;-60
2022/05/21 00:56:48;;;;;;;47.85;25.52;;;11.10;99.90;;;;;;4972835;28;20039;-60
2022/05/21 01:02:01;;;;;;;51.45;22.55;;;11.10;99.90;;;;;;4972364;28;20038;-60
2022/05/21 01:04:26;;;;;;;49.25;24.13;;;11.00;99.90;;;;;;4973604;28;20063;-59
2022/05/21 01:06:59;;;;;;;49.15;26.23;;;11.00;99.90;;;;;;4973492;28;20137;-60
2022/05/21 01:09:25;;;;;;;58.25;29.15;;;11.00;99.90;;;;;;4950446;28;20054;-60
2022/05/21 01:11:50;;;;;;;57.17;25.98;;;11.00;99.90;;;;;;4965482;28;20046;-60
2022/05/21 01:14:20;;;;;;;53.47;25.70;;;10.90;99.90;;;;;;4973005;28;20039;-60
2022/05/21 01:16:47;;;;;;;60.63;29.15;;;10.90;99.90;;;;;;4968025;28;20047;-60
2022/05/21 01:19:13;;;;;;;59.15;29.60;;;10.90;99.90;;;;;;4959215;28;20054;-60
2022/05/21 01:21:39;;;;;;;60.42;25.55;;;11.00;99.90;;;;;;4973039;28;20403;-59
2022/05/21 01:24:10;;;;;;;62.97;30.38;;;11.00;99.90;;;;;;4973210;28;20483;-61
2022/05/21 01:26:38;;;;;;;66.30;28.13;;;11.10;99.90;;;;;;4961366;28;20035;-60
2022/05/21 01:29:09;;;;;;;72.07;30.17;;;11.10;99.90;;;;;;4965685;28;20490;-59
2022/05/21 01:31:35;;;;;;;;;;;11.20;99.90;;;;;;4973771;28;20130;-60
2022/05/21 01:34:00;;;;;;;64.93;29.38;;;11.30;99.90;;;;;;4960456;28;20004;-60
2022/05/21 01:36:26;;;;;;;58.00;27.05;;;11.30;99.90;;;;;;4970091;28;20042;-60
2022/05/21 01:38:52;;;;;;;66.28;30.40;;;11.40;99.90;;;;;;4973290;28;20427;-60
2022/05/21 01:41:18;;;;;;;64.47;32.13;;;11.40;99.90;;;;;;4968132;28;20117;-59
2022/05/21 01:46:27;;;;;;;58.13;28.40;;;11.60;99.90;;;;;;4972791;28;20042;-60
2022/05/21 01:48:53;;;;;;;53.33;25.00;;;11.60;99.90;;;;;;4971264;28;20125;-60
2022/05/21 01:51:19;;;;;;;60.45;32.50;;;11.60;99.90;;;;;;4958583;28;20059;-60
2022/05/21 01:53:44;;;;;;;76.65;38.10;;;11.60;99.90;;;;;;4970368;28;20483;-60
2022/05/21 01:56:11;;;;;;;53.40;28.70;;;11.70;99.90;;;;;;4972864;28;20118;-57
2022/05/21 01:58:37;;;;;;;70.00;35.67;;;11.70;99.90;;;;;;4968177;28;20038;-60
2022/05/21 02:01:04;;;;;;;61.13;31.67;;;11.70;99.90;;;;;;4964531;28;20031;-60
2022/05/21 02:03:30;;;;;;;56.03;30.63;;;11.80;99.90;;;;;;4955140;28;20121;-60
2022/05/21 02:05:55;;;;;;;71.53;35.08;;;11.80;99.90;;;;;;4968420;28;20161;-60
2022/05/21 02:08:21;;;;;;;67.68;34.60;;;11.80;99.90;;;;;;4954621;28;20078;-60
2022/05/21 02:10:48;;;;;;;68.60;36.92;;;11.80;99.90;;;;;;4970719;28;20045;-60
2022/05/21 02:13:25;;;;;;;70.55;36.13;;;11.80;99.90;;;;;;4972546;28;20419;-60
2022/05/21 02:15:51;;;;;;;64.47;36.70;;;11.90;99.90;;;;;;4964798;28;20053;-60
2022/05/21 02:18:17;;;;;;;69.55;37.50;;;11.90;99.90;;;;;;4963694;28;20117;-60
2022/05/21 02:20:43;;;;;;;67.18;36.00;;;11.90;99.90;;;;;;4971922;28;20462;-60
2022/05/21 02:23:10;;;;;;;56.72;32.40;;;11.90;99.90;;;;;;4967782;28;20070;-60
2022/05/21 02:25:36;;;;;;;63.45;36.03;;;11.90;99.90;;;;;;4968793;28;20074;-61
2022/05/21 02:28:02;;;;;;;53.13;29.23;;;12.00;99.90;;;;;;4972250;28;20085;-60
2022/05/21 02:30:27;;;;;;;60.80;34.63;;;12.00;99.90;;;;;;4954908;28;20054;-59
2022/05/21 02:32:53;;;;;;;58.80;33.67;;;12.00;99.90;;;;;;4964679;28;20035;-58
2022/05/21 02:35:18;;;;;;;58.13;33.53;;;12.00;99.90;;;;;;4961935;28;20058;-60
2022/05/21 02:40:30;;;;;;;60.30;33.25;;;12.00;99.90;;;;;;4959619;28;20047;-60
2022/05/21 02:42:55;;;;;;;63.08;34.50;;;12.00;99.90;;;;;;4965867;28;20113;-60
2022/05/21 02:45:23;;;;;;;61.08;33.22;;;12.10;99.90;;;;;;4974185;28;20451;-60
2022/05/21 02:47:50;;;;;;;60.83;32.88;;;12.10;99.90;;;;;;4991892;28;20510;-60
2022/05/21 02:50:19;;;;;;;50.85;29.00;;;12.10;99.90;;;;;;4967395;28;20512;-60
2022/05/21 02:52:44;;;;;;;58.22;32.40;;;12.20;99.90;;;;;;4970458;28;20054;-60
2022/05/21 02:55:12;;;;;;;49.63;30.65;;;12.20;99.90;;;;;;4972970;28;20039;-59
2022/05/21 02:57:38;;;;;;;50.72;28.75;;;12.20;99.90;;;;;;4962923;28;20043;-60
2022/05/21 03:00:15;;;;;;;51.38;27.48;;;12.20;99.90;;;;;;4964843;28;20100;-60
2022/05/21 03:02:40;;;;;;;52.58;28.85;;;12.20;99.90;;;;;;4969762;28;20039;-59
2022/05/21 03:05:07;;;;;;;49.67;29.10;;;12.30;99.90;;;;;;4968517;28;20523;-60
2022/05/21 03:07:38;;;;;;;51.78;29.65;;;12.30;99.90;;;;;;4969562;28;20097;-58
2022/05/21 03:10:22;;;;;;;49.40;26.92;;;12.30;99.90;;;;;;4954640;28;20054;-61
2022/05/21 03:12:58;;;;;;;51.35;27.33;;;12.30;99.90;;;;;;4966870;28;20089;-59
2022/05/21 03:15:33;;;;;;;52.05;28.30;;;12.30;99.90;;;;;;4968234;28;20566;-60
2022/05/21 03:18:04;;;;;;;50.45;26.52;;;12.30;99.90;;;;;;4971882;28;20038;-60
2022/05/21 03:20:29;;;;;;;45.17;24.60;;;12.30;99.90;;;;;;4968015;28;20043;-60
2022/05/21 03:22:55;;;;;;;49.97;26.45;;;12.30;99.90;;;;;;4967445;28;20034;-58
2022/05/21 03:25:23;;;;;;;44.25;25.58;;;12.30;99.90;;;;;;4971717;28;20035;-60
2022/05/21 03:27:50;;;;;;;49.47;26.48;;;12.30;99.90;;;;;;4972080;28;20506;-60
2022/05/21 03:30:18;;;;;;;44.90;25.85;;;12.30;99.90;;;;;;4956923;28;20414;-58
2022/05/21 03:32:44;;;;;;;45.83;25.17;;;12.40;99.90;;;;;;4970416;28;20038;-60
2022/05/21 03:35:12;;;;;;;45.67;26.20;;;12.40;99.90;;;;;;4975355;28;20562;-61
2022/05/21 03:37:38;;;;;;;46.20;25.05;;;12.30;99.90;;;;;;4992228;28;20052;-62
2022/05/21 03:40:06;;;;;;;44.45;23.98;;;12.30;99.90;;;;;;4961693;28;20057;-62
2022/05/21 03:42:32;;;;;;;47.78;24.42;;;12.30;99.90;;;;;;4969346;28;20051;-62
2022/05/21 03:44:57;;;;;;;43.28;22.83;;;12.40;99.90;;;;;;4974718;28;20403;-62
2022/05/21 03:47:23;;;;;;;46.90;23.63;;;12.40;99.90;;;;;;4957465;28;20043;-61
2022/05/21 03:49:49;;;;;;;46.45;23.45;;;12.40;99.90;;;;;;4965608;28;20051;-62
2022/05/21 03:52:14;;;;;;;41.90;22.50;;;12.40;99.90;;;;;;4975063;28;20047;-62
2022/05/21 03:54:40;;;;;;;43.10;22.58;;;12.40;99.90;;;;;;4961228;28;20053;-62
2022/05/21 03:57:06;;;;;;;43.17;22.55;;;12.40;99.90;;;;;;4963980;28;20045;-62
2022/05/21 03:59:33;;;;;;;45.50;23.20;;;12.50;99.90;;;;;;4957812;28;20043;-61
2022/05/21 04:01:59;;;;;;;44.20;22.05;;;12.50;99.90;;;;;;4945826;28;20034;-61
2022/05/21 04:04:24;;;;;;;45.40;22.13;;;12.50;99.90;;;;;;4959564;28;20058;-62
2022/05/21 04:06:50;;;;;;;46.58;22.55;;;12.50;99.90;;;;;;4976127;28;20070;-62
2022/05/21 04:09:16;;;;;;;36.90;21.05;;;12.50;99.90;;;;;;4974869;28;20125;-62
2022/05/21 04:11:41;;;;;;;38.17;21.45;;;12.60;99.90;;;;;;4964092;28;20503;-61
2022/05/21 04:14:07;;;;;;;39.55;21.92;;;12.60;99.90;;;;;;4966817;28;20047;-62
2022/05/21 04:16:34;;;;;;;44.88;20.27;;;12.60;99.90;;;;;;4973783;28;20054;-62
2022/05/21 04:19:00;;;;;;;41.55;21.05;;;12.60;99.90;;;;;;4972354;28;20053;-62
2022/05/21 04:21:28;;;;;;;40.08;19.35;;;12.60;99.90;;;;;;4960378;28;20047;-61
2022/05/21 04:23:54;;;;;;;39.35;20.15;;;12.70;99.90;;;;;;4973316;28;20411;-61
2022/05/21 04:26:20;;;;;;;38.05;19.40;;;12.70;99.90;;;;;;4974260;28;20041;-62
2022/05/21 04:28:45;;;;;;;38.20;18.10;;;12.70;99.90;;;;;;4974569;28;20034;-63
2022/05/21 04:31:11;;;;;;;35.25;18.08;;;12.70;99.90;;;;;;4958380;28;20537;-62
2022/05/21 04:33:36;;;;;;;37.08;18.55;;;12.70;99.90;;;;;;4970341;28;20046;-61
2022/05/21 04:36:21;;;;;;;39.10;18.40;;;12.70;99.90;;;;;;4969015;28;20545;-61
2022/05/21 04:38:49;;;;;;;31.88;18.90;;;12.80;99.90;;;;;;4956550;28;20054;-62
2022/05/21 04:41:16;;;;;;;36.45;17.83;;;12.80;99.90;;;;;;4974137;28;20043;-62
2022/05/21 04:43:42;;;;;;;32.25;17.48;;;12.80;99.90;;;;;;4973628;28;20058;-62
2022/05/21 04:46:09;;;;;;;29.38;17.00;;;12.90;99.90;;;;;;4969606;28;20559;-62
2022/05/21 04:48:34;;;;;;;32.85;16.83;;;12.90;99.90;;;;;;4973595;28;20051;-62
2022/05/21 04:51:02;;;;;;;33.42;17.48;;;13.00;99.90;;;;;;4973788;28;20053;-62
2022/05/21 04:53:28;;;;;;;33.42;16.05;;;13.00;99.90;;;;;;4963110;28;20122;-62
2022/05/21 04:55:54;;;;;;;33.90;16.05;;;13.00;99.90;;;;;;4966784;28;20054;-62
2022/05/21 04:58:20;;;;;;;34.22;15.23;;;13.00;99.90;;;;;;4956214;28;20043;-62
2022/05/21 05:00:46;;;;;;;29.50;14.70;;;13.10;99.90;;;;;;4966742;28;20047;-62
2022/05/21 05:03:14;;;;;;;31.30;14.73;;;13.10;99.90;;;;;;4963411;28;20831;-62
2022/05/21 05:05:40;;;;;;;31.00;14.23;;;13.10;99.90;;;;;;4985502;28;20077;-61
2022/05/21 05:08:06;;;;;;;27.55;14.40;;;13.20;99.90;;;;;;4989803;28;20062;-61
2022/05/21 05:10:33;;;;;;;30.70;14.25;;;13.20;99.90;;;;;;4968178;28;20051;-61
2022/05/21 05:12:59;;;;;;;31.42;13.73;;;13.30;99.90;;;;;;4969402;28;20034;-60
2022/05/21 05:15:25;;;;;;;35.80;13.18;;;13.30;99.90;;;;;;4969213;28;20553;-62
2022/05/21 05:17:56;;;;;;;25.33;11.75;;;13.40;99.90;;;;;;4966763;28;20050;-61
2022/05/21 05:20:22;;;;;;;;;;;13.40;99.90;;;;;;4965184;28;20129;-62
2022/05/21 05:22:47;;;;;;;24.50;10.60;;;13.40;99.90;;;;;;4979161;28;20005;-61
2022/05/21 05:25:13;;;;;;;24.48;9.18;;;13.50;99.90;;;;;;4967372;28;20061;-62
2022/05/21 05:27:39;;;;;;;21.13;9.23;;;13.60;99.90;;;;;;4932505;28;20572;-62
2022/05/21 05:30:05;;;;;;;22.92;8.60;;;13.70;99.90;;;;;;4962669;28;20043;-62
2022/05/21 05:32:30;;;;;;;26.35;8.73;;;13.80;99.90;;;;;;4970225;28;20077;-62
2022/05/21 05:34:56;;;;;;;19.83;7.55;;;13.90;99.90;;;;;;4969580;28;20058;-60
2022/05/21 05:37:21;;;;;;;24.05;6.50;;;13.90;99.90;;;;;;4955482;28;20058;-62
2022/05/21 05:39:47;;;;;;;19.98;6.22;;;13.90;99.90;;;;;;4967167;28;20047;-62
2022/05/21 05:42:13;;;;;;;20.10;5.93;;;14.00;99.90;;;;;;4969780;28;20038;-62
2022/05/21 05:44:38;;;;;;;19.08;5.88;;;14.00;99.90;;;;;;4955743;28;20035;-62
2022/05/21 05:47:04;;;;;;;15.55;5.22;;;14.00;99.90;;;;;;4969280;28;20046;-63
2022/05/21 05:49:30;;;;;;;15.63;4.82;;;14.10;99.90;;;;;;4962631;28;20042;-62
2022/05/21 05:51:55;;;;;;;18.38;4.60;;;14.10;99.90;;;;;;4962363;28;20396;-63
2022/05/21 05:54:21;;;;;;;18.27;5.18;;;14.20;99.90;;;;;;4968947;28;20751;-62
2022/05/21 05:56:47;;;;;;;16.48;4.72;;;14.40;99.90;;;;;;4968781;28;20042;-62
2022/05/21 06:04:55;;;;;;;16.63;4.60;;;14.70;99.90;;;;;;4968843;28;20078;-62
2022/05/21 06:07:21;;;;;;;16.63;5.60;;;14.80;99.90;;;;;;4969549;28;20078;-62
2022/05/21 06:09:47;;;;;;;17.38;4.50;;;14.80;99.90;;;;;;4964041;28;20049;-62
2022/05/21 06:12:14;;;;;;;19.00;4.22;;;14.80;99.90;;;;;;4967378;28;20042;-62
2022/05/21 06:14:41;;;;;;;17.33;4.78;;;14.60;99.90;;;;;;4968990;28;20054;-62
2022/05/21 06:17:08;;;;;;;13.25;4.40;;;14.40;99.90;;;;;;4955024;28;20093;-62
2022/05/21 06:19:34;;;;;;;19.25;4.80;;;14.30;99.90;;;;;;4965228;28;20521;-62
2022/05/21 06:22:01;;;;;;;14.52;4.60;;;14.30;99.90;;;;;;4969075;28;20075;-62
2022/05/21 06:24:28;;;;;;;15.60;4.95;;;14.30;99.90;;;;;;4969564;28;20050;-61
2022/05/21 06:26:53;;;;;;;14.93;4.57;;;14.40;99.90;;;;;;4957547;28;20576;-63
2022/05/21 06:29:19;;;;;;;14.75;4.40;;;14.70;99.90;;;;;;4967393;28;20121;-63
2022/05/21 06:31:44;;;;;;;16.10;4.70;;;14.80;99.90;;;;;;4969449;28;20127;-62
2022/05/21 06:34:10;;;;;;;16.77;4.28;;;14.80;99.90;;;;;;4959544;28;20042;-62
2022/05/21 06:36:36;;;;;;;12.45;4.55;;;14.80;99.90;;;;;;4966597;28;20045;-60
2022/05/21 06:39:02;;;;;;;13.00;4.18;;;14.80;99.90;;;;;;4969392;28;20070;-62
2022/05/21 06:41:31;;;;;;;15.57;4.30;;;14.90;99.90;;;;;;4966507;28;20057;-62
2022/05/21 06:43:57;;;;;;;14.18;4.63;;;14.90;99.90;;;;;;4965659;28;20042;-62
2022/05/21 06:46:22;;;;;;;18.17;4.75;;;14.90;99.90;;;;;;4951346;28;20101;-62
2022/05/21 06:48:48;;;;;;;14.50;4.22;;;15.00;99.90;;;;;;4962510;28;20079;-63
2022/05/21 06:51:14;;;;;;;11.48;4.25;;;15.00;99.90;;;;;;4948500;28;20621;-63
2022/05/21 06:53:40;;;;;;;11.05;4.35;;;15.00;99.90;;;;;;4960679;28;20406;-62
2022/05/21 06:56:07;;;;;;;12.20;4.50;;;15.10;99.90;;;;;;4950565;28;20054;-63
2022/05/21 06:58:33;;;;;;;16.20;4.55;;;15.00;99.90;;;;;;4963805;28;20058;-62
2022/05/21 07:00:58;;;;;;;13.35;4.75;;;15.00;99.90;;;;;;4962907;28;20035;-62
2022/05/21 07:03:24;;;;;;;18.85;5.03;;;15.00;99.90;;;;;;4970304;28;20584;-62
2022/05/21 07:08:33;;;;;;;12.98;4.13;;;15.10;99.90;;;;;;4953854;28;20051;-62
2022/05/21 07:10:59;;;;;;;11.55;3.95;;;15.20;99.90;;;;;;4971129;28;20368;-62
2022/05/21 07:13:25;;;;;;;15.73;4.72;;;15.20;99.90;;;;;;4972572;28;20041;-62
2022/05/21 07:15:53;;;;;;;17.15;4.35;;;15.30;99.90;;;;;;4960192;28;20051;-62
2022/05/21 07:18:20;;;;;;;16.05;4.63;;;15.40;99.90;;;;;;4977542;28;20039;-62
2022/05/21 07:20:48;;;;;;;14.23;4.75;;;15.50;99.90;;;;;;4978860;28;20038;-62
2022/05/21 07:23:14;;;;;;;16.75;4.78;;;15.60;99.90;;;;;;4972266;28;20039;-62
2022/05/21 07:25:40;;;;;;;13.40;4.20;;;15.50;99.90;;;;;;4973649;28;20042;-62
2022/05/21 07:28:07;;;;;;;11.90;4.07;;;15.30;99.90;;;;;;4975606;28;20091;-63
2022/05/21 07:30:34;;;;;;;11.20;3.72;;;15.20;99.90;;;;;;4968093;28;20047;-62
2022/05/21 07:32:59;;;;;;;11.05;4.22;;;15.00;99.90;;;;;;4970425;28;20483;-62
2022/05/21 07:35:27;;;;;;;10.02;4.20;;;15.10;99.90;;;;;;4974724;28;20169;-62
2022/05/21 07:37:53;;;;;;;13.40;3.72;;;15.30;99.90;;;;;;4965741;28;20046;-63
2022/05/21 07:40:20;;;;;;;16.10;4.50;;;15.40;99.90;;;;;;4963025;28;20038;-63
2022/05/21 07:42:46;;;;;;;13.38;4.65;;;15.40;99.90;;;;;;4968164;28;20034;-62
2022/05/21 07:45:14;;;;;;;8.73;3.78;;;15.40;99.90;;;;;;4957796;28;20046;-62
2022/05/21 07:47:39;;;;;;;14.10;4.22;;;15.30;99.90;;;;;;4971908;28;20121;-64
2022/05/21 07:50:06;;;;;;;12.05;4.32;;;15.30;99.90;;;;;;4975222;28;20122;-64
2022/05/21 07:52:32;;;;;;;10.85;4.07;;;15.40;99.90;;;;;;4975568;28;20047;-63
2022/05/21 07:54:58;;;;;;;10.90;3.80;;;15.60;99.90;;;;;;4946649;28;20043;-63
2022/05/21 07:57:23;;;;;;;11.40;3.97;;;15.90;99.90;;;;;;4972577;28;20494;-62
2022/05/21 07:59:50;;;;;;;11.32;3.85;;;15.90;99.90;;;;;;4965165;28;20027;-64
2022/05/21 08:02:17;;;;;;;15.60;3.97;;;15.90;99.90;;;;;;4970572;28;20042;-63
2022/05/21 08:04:45;;;;;;;11.63;3.78;;;16.10;99.90;;;;;;4961055;28;20046;-64
2022/05/21 08:07:11;;;;;;;9.38;3.63;;;16.10;99.90;;;;;;4940465;28;20050;-63
2022/05/21 08:09:37;;;;;;;13.40;3.92;;;16.00;99.90;;;;;;4964000;28;20414;-63
2022/05/21 08:12:04;;;;;;;8.95;3.60;;;15.80;99.90;;;;;;4973288;28;20513;-63
2022/05/21 08:14:30;;;;;;;11.38;3.50;;;15.60;99.90;;;;;;4956260;28;20115;-64
2022/05/21 08:16:56;;;;;;;15.13;3.70;;;15.50;99.90;;;;;;4969430;28;20059;-64
2022/05/21 08:19:21;;;;;;;11.30;3.53;;;15.40;99.90;;;;;;4972915;28;20031;-63
2022/05/21 08:21:47;;;;;;;10.18;4.05;;;15.60;99.90;;;;;;4952620;28;20059;-63
2022/05/21 08:26:59;;;;;;;11.07;3.63;;;15.90;99.90;;;;;;4966170;28;20086;-64
2022/05/21 08:29:33;;;;;;;16.52;4.10;;;16.10;99.90;;;;;;4980334;28;20035;-65
2022/05/21 08:32:00;;;;;;;9.05;3.30;;;15.90;99.90;;;;;;4982631;28;20045;-62
2022/05/21 08:34:27;;;;;;;12.93;3.95;;;15.90;99.90;;;;;;4982552;28;20146;-63
2022/05/21 08:36:53;;;;;;;9.90;3.33;;;16.00;99.90;;;;;;4973697;28;20110;-63
2022/05/21 08:39:20;;;;;;;11.70;3.40;;;16.10;99.90;;;;;;4972295;28;20043;-65
2022/05/21 08:42:04;;;;;;;6.78;2.90;;;16.00;99.90;;;;;;4968595;28;20038;-62
2022/05/21 08:44:44;;;;;;;7.68;3.22;;;15.90;99.90;;;;;;4978130;28;20030;-63
2022/05/21 08:47:21;;;;;;;8.13;2.97;;;15.80;99.90;;;;;;4972839;28;20043;-62
2022/05/21 08:50:01;;;;;;;9.75;3.33;;;15.70;99.90;;;;;;4984105;28;20049;-61
2022/05/21 08:52:51;;;;;;;10.77;3.20;;;15.90;99.90;;;;;;4985544;28;20042;-62
2022/05/21 08:55:21;;;;;;;8.63;2.90;;;15.90;99.90;;;;;;4972457;28;20127;-62
2022/05/21 08:57:56;;;;;;;11.25;2.85;;;15.90;99.90;;;;;;4969582;28;20065;-62
2022/05/21 09:00:30;;;;;;;11.45;3.28;;;16.00;99.90;;;;;;4972426;28;20089;-62
2022/05/21 09:02:56;;;;;;;9.10;3.20;;;16.30;99.90;;;;;;4960891;28;20492;-63
2022/05/21 09:05:23;;;;;;;8.57;2.75;;;16.40;99.90;;;;;;4969106;28;20143;-62
2022/05/21 09:08:08;;;;;;;9.10;3.00;;;16.50;99.90;;;;;;4972374;28;20042;-62
2022/05/21 09:10:53;;;;;;;8.90;2.38;;;16.90;99.90;;;;;;4966246;28;20043;-62
2022/05/21 09:13:46;;;;;;;8.82;2.47;;;17.10;99.90;;;;;;4964214;28;20499;-62
2022/05/21 09:19:04;;;;;;;12.90;3.05;;;16.80;99.90;;;;;;4970796;28;20062;-62
2022/05/21 09:21:33;;;;;;;11.77;2.85;;;16.80;99.90;;;;;;4960388;28;20091;-62
2022/05/21 09:24:01;;;;;;;15.38;2.97;;;16.90;99.90;;;;;;4972831;28;20053;-62
2022/05/21 09:26:49;;;;;;;7.97;2.30;;;17.20;99.90;;;;;;4973365;28;20558;-62
2022/05/21 09:29:25;;;;;;;10.27;2.65;;;17.30;99.90;;;;;;4965565;28;20559;-62
2022/05/21 09:31:55;;;;;;;7.22;2.65;;;17.40;99.90;;;;;;4957015;28;20046;-62
2022/05/21 09:47:32;;;;;;;11.90;2.80;;;17.30;99.90;;;;;;5001049;28;20481;-61
2022/05/21 09:50:05;;;;;;;8.52;2.65;;;17.50;99.90;;;;;;4994056;23;20051;-63
2022/05/21 09:52:32;;;;;;;7.25;2.70;;;17.50;99.90;;;;;;4967353;28;20118;-63
2022/05/21 09:54:58;;;;;;;9.35;2.50;;;17.60;99.90;;;;;;4949379;28;20027;-61
2022/05/21 09:57:33;;;;;;;9.38;2.58;;;17.80;99.90;;;;;;4960431;28;20077;-63
2022/05/21 10:00:04;;;;;;;10.18;2.40;;;17.80;99.90;;;;;;4950518;29;20035;-64
2022/05/21 10:02:43;;;;;;;9.50;2.50;;;17.90;99.90;;;;;;5461248;23;20005;-62
2022/05/21 10:05:12;;;;;;;7.43;2.17;;;17.70;99.90;;;;;;5008694;28;20038;-62
2022/05/21 10:13:20;;;;;;;7.05;2.58;;;17.20;99.90;;;;;;4995126;28;20050;-62
2022/05/21 10:15:50;;;;;;;9.65;2.50;;;17.20;99.90;;;;;;4990943;28;20399;-62
2022/05/21 10:18:35;;;;;;;6.95;2.80;;;17.30;99.90;;;;;;4973927;28;20054;-62
2022/05/21 10:34:23;;;;;;;11.30;2.85;;;17.30;99.90;;;;;;6107179;23;20065;-62
2022/05/21 10:37:00;;;;;;;7.73;2.77;;;17.70;99.90;;;;;;4938013;28;20039;-63
2022/05/21 10:42:19;;;;;;;8.48;2.38;;;17.80;99.90;;;;;;5286354;23;20050;-62
2022/05/21 11:00:26;;;;;;;7.28;1.85;;;18.30;99.90;;;;;;5301746;23;20055;-62
2022/05/21 11:03:07;;;;;;;6.55;2.00;;;18.60;99.90;;;;;;4978867;28;20041;-62
2022/05/21 11:05:56;;;;;;;8.38;2.33;;;18.40;99.90;;;;;;4998725;28;20045;-63
2022/05/21 11:08:37;;;;;;;4.07;1.77;;;18.60;99.90;;;;;;4994726;28;20541;-63
2022/05/21 11:16:29;;;;;;;7.18;1.98;;;18.60;99.90;;;;;;5865634;23;20418;-62
2022/05/21 11:19:00;;;;;;;;;;;18.30;99.90;;;;;;4969719;28;20042;-62
2022/05/21 11:21:41;;;;;;;;;;;17.80;99.90;;;;;;4981515;28;19922;-63
2022/05/21 11:45:23;;;;;;;6.05;1.90;;;18.00;99.90;;;;;;6023663;22;20108;-62
2022/05/21 11:47:49;;;;;;;6.60;1.77;;;18.10;99.90;;;;;;4993681;28;20074;-62
2022/05/21 11:50:26;;;;;;;6.05;1.80;;;18.30;99.90;;;;;;4986595;28;20073;-61
2022/05/21 11:53:05;;;;;;;6.35;2.00;;;18.20;99.90;;;;;;4992114;28;20647;-62
2022/05/21 12:11:30;;;;;;;8.48;1.90;;;18.20;99.90;;;;;;5704666;23;20049;-61
2022/05/21 12:14:14;;;;;;;6.45;2.08;;;18.40;99.90;;;;;;4967897;28;20126;-64
2022/05/21 12:16:43;;;;;;;8.85;2.10;;;18.40;99.90;;;;;;4968302;28;20065;-61
2022/05/21 12:19:09;;;;;;;6.75;2.45;;;18.50;99.90;;;;;;4968775;28;20046;-61
2022/05/21 12:21:36;;;;;;;8.10;2.10;;;18.30;99.90;;;;;;4963319;28;20129;-61
2022/05/21 12:24:05;;;;;;;7.53;2.10;;;18.20;99.90;;;;;;4952086;28;20053;-63
2022/05/21 12:26:39;;;;;;;7.45;1.90;;;18.20;99.90;;;;;;4969091;28;20035;-61
2022/05/21 12:29:23;;;;;;;9.55;1.88;;;18.40;99.90;;;;;;4973158;28;20402;-61
2022/05/21 12:31:50;;;;;;;8.80;2.42;;;18.40;99.90;;;;;;4973571;28;20048;-61
2022/05/21 12:34:40;;;;;;;5.70;2.20;;;18.10;99.90;;;;;;4953755;28;20511;-61
2022/05/21 12:37:23;;;;;;;7.45;2.38;;;18.10;99.90;;;;;;4969015;28;20043;-61
2022/05/21 12:40:03;;;;;;;7.07;2.17;;;18.10;99.90;;;;;;4967790;28;20042;-61
2022/05/21 12:42:51;;;;;;;6.95;2.15;;;18.10;99.90;;;;;;4958460;28;20074;-61
2022/05/21 12:45:49;;;;;;;12.07;3.40;;;17.90;99.90;;;;;;4954606;28;20047;-61
2022/05/21 12:48:22;;;;;;;10.18;2.42;;;17.70;99.90;;;;;;4935557;28;20687;-62
2022/05/21 12:50:53;;;;;;;6.63;2.17;;;17.60;99.90;;;;;;4972439;28;20047;-61
2022/05/21 12:53:28;;;;;;;7.07;2.10;;;17.80;99.90;;;;;;4972917;28;20034;-61
2022/05/21 12:56:07;;;;;;;6.45;1.90;;;17.80;99.90;;;;;;4948526;28;20137;-62
2022/05/21 12:58:33;;;;;;;6.38;2.20;;;18.00;99.90;;;;;;4961637;28;20054;-61
2022/05/21 13:01:00;;;;;;;7.30;2.17;;;18.30;99.90;;;;;;4972444;28;20031;-61
2022/05/21 13:03:31;;;;;;;8.20;2.22;;;18.60;99.90;;;;;;4973222;28;20495;-61
2022/05/21 13:06:06;;;;;;;9.02;2.40;;;18.90;99.90;;;;;;4966275;28;20049;-61
2022/05/21 13:08:36;;;;;;;5.60;2.00;;;19.10;99.90;;;;;;4972155;28;20057;-61
2022/05/21 13:11:13;;;;;;;6.78;2.50;;;19.40;99.90;;;;;;4964791;28;20043;-62
2022/05/21 13:13:42;;;;;;;8.23;2.38;;;19.30;99.90;;;;;;4966992;28;20047;-61
2022/05/21 13:16:15;;;;;;;7.85;2.58;;;19.00;99.90;;;;;;4970779;28;20517;-62
2022/05/21 13:18:52;;;;;;;7.50;2.00;;;19.10;99.90;;;;;;4972622;28;20045;-61
2022/05/21 13:21:50;;;;;;;6.93;2.25;;;19.20;98.40;;;;;;4968739;28;20034;-62
2022/05/21 13:24:46;;;;;;;6.30;2.13;;;19.00;99.20;;;;;;4936087;28;20097;-64
2022/05/21 13:27:18;;;;;;;4.75;1.90;;;18.50;98.30;;;;;;4965996;28;20424;-64
2022/05/21 13:29:44;;;;;;;10.07;2.20;;;18.50;99.80;;;;;;4967830;28;20129;-61
2022/05/21 13:32:30;;;;;;;6.75;1.90;;;18.70;99.70;;;;;;4967130;28;20459;-64
2022/05/21 13:34:59;;;;;;;7.53;1.98;;;18.60;99.80;;;;;;4972145;28;20491;-63
2022/05/21 13:37:30;;;;;;;8.02;2.10;;;18.40;99.90;;;;;;4972185;28;20063;-61
2022/05/21 13:40:03;;;;;;;7.72;2.35;;;18.40;99.90;;;;;;4960906;28;20050;-61
2022/05/21 13:42:29;;;;;;;8.02;2.13;;;18.80;99.90;;;;;;4970314;28;20514;-62
2022/05/21 13:45:04;;;;;;;8.30;2.47;;;19.00;99.90;;;;;;4955267;28;20126;-62
2022/05/21 13:47:45;;;;;;;9.48;2.55;;;18.70;99.90;;;;;;4962758;28;20525;-61
2022/05/21 13:50:11;;;;;;;6.85;2.78;;;18.30;99.90;;;;;;4971553;28;20035;-61
2022/05/21 13:52:37;;;;;;;6.68;2.33;;;18.30;99.90;;;;;;4972492;28;20380;-61
2022/05/21 13:55:06;;;;;;;7.88;2.40;;;18.20;99.90;;;;;;4972809;28;20046;-61
2022/05/21 13:57:34;;;;;;;7.05;2.22;;;18.50;99.90;;;;;;4942704;28;20047;-63
2022/05/21 14:00:38;;;;;;;6.50;2.25;;;18.70;99.90;;;;;;4963955;28;20113;-61
2022/05/21 14:03:19;;;;;;;10.13;2.30;;;18.90;99.50;;;;;;4890896;29;20040;-62
2022/05/21 14:05:53;;;;;;;7.33;2.60;;;19.00;99.90;;;;;;4892916;29;20040;-62
2022/05/21 14:08:32;;;;;;;7.95;2.63;;;18.60;99.90;;;;;;4931165;29;20574;-62
2022/05/21 14:11:14;;;;;;;6.00;2.25;;;18.40;99.90;;;;;;4956269;28;20090;-61
2022/05/21 14:14:04;;;;;;;6.03;2.00;;;18.60;99.90;;;;;;4971952;28;20046;-61
2022/05/21 14:16:37;;;;;;;9.85;2.95;;;19.20;99.90;;;;;;4971834;28;20050;-61
2022/05/21 14:19:18;;;;;;;8.55;2.70;;;19.30;99.90;;;;;;4966904;28;20051;-62
2022/05/21 14:22:06;;;;;;;7.90;2.47;;;18.80;99.90;;;;;;4965079;28;20046;-62
2022/05/21 14:24:33;;;;;;;7.47;2.70;;;18.60;99.90;;;;;;4972379;28;20043;-62
2022/05/21 14:27:22;;;;;;;11.32;2.63;;;19.00;99.90;;;;;;4972334;28;20070;-61
2022/05/21 14:30:01;;;;;;;12.05;3.28;;;19.70;99.90;;;;;;4966031;28;20049;-61
2022/05/21 14:32:32;;;;;;;8.50;2.80;;;20.30;99.90;;;;;;4972521;28;20037;-62
2022/05/21 14:35:15;;;;;;;6.53;2.35;;;20.90;99.90;;;;;;4972483;28;20133;-62
2022/05/21 14:37:42;;;;;;;12.50;3.03;;;20.70;96.90;;;;;;4954952;28;20043;-61
2022/05/21 14:40:10;;;;;;;8.07;2.60;;;19.90;99.50;;;;;;4965536;28;20046;-61
2022/05/21 14:42:36;;;;;;;8.50;2.80;;;19.40;99.90;;;;;;4972448;28;20113;-61
2022/05/21 14:45:12;;;;;;;9.25;3.78;;;19.10;99.90;;;;;;4968760;28;20039;-62